Time;durP1;ratioP1;P1;durP2;ratioP2;P2;SDS_P1;SDS_P2;PMS_P1;PMS_P2;Temp;Humidity;BMP_temperature;BMP_pressure;BME280_temperature;BME280_humidity;BME280_pressure;Samples;Min_cycle;Max_cycle;Signal;HPM_P1;HPM_P2
2022/07/31 00:01:53;;;;;;;4.95;3.10;;;;;;;20.46;52.89;99788.81;5031350;28;20054;-67
2022/07/31 00:04:23;;;;;;;4.95;3.05;;;;;;;20.49;53.06;99793.06;5030407;28;20056;-67
2022/07/31 00:06:50;;;;;;;7.78;3.63;;;;;;;20.49;52.80;99788.53;5027549;28;20045;-66
2022/07/31 00:09:17;;;;;;;9.13;3.33;;;;;;;20.46;52.91;99793.34;5011264;28;20064;-67
2022/07/31 00:11:44;;;;;;;6.03;2.63;;;;;;;20.46;53.29;99802.22;5011065;28;20084;-66
2022/07/31 00:14:11;;;;;;;4.47;2.83;;;;;;;20.43;53.29;99798.94;5010434;28;20557;-68
2022/07/31 00:16:38;;;;;;;5.45;3.50;;;;;;;20.43;53.43;99783.75;5011146;28;20054;-68
2022/07/31 00:19:04;;;;;;;5.25;2.95;;;;;;;20.42;53.31;99786.56;5010925;28;20038;-66
2022/07/31 00:21:32;;;;;;;5.72;3.28;;;;;;;20.43;53.25;99777.53;5010844;28;20513;-66
2022/07/31 00:23:59;;;;;;;7.43;3.10;;;;;;;20.35;53.66;99771.06;5010397;28;20517;-66
2022/07/31 00:26:26;;;;;;;3.85;2.72;;;;;;;20.34;53.84;99766.66;5011118;28;20049;-66
2022/07/31 00:28:52;;;;;;;4.88;2.55;;;;;;;20.34;53.79;99755.13;5010832;28;20077;-66
2022/07/31 00:31:19;;;;;;;5.65;2.60;;;;;;;20.34;53.93;99750.59;5010858;28;20058;-67
2022/07/31 00:33:45;;;;;;;3.58;3.20;;;;;;;20.36;54.05;99751.31;5010993;28;20050;-67
2022/07/31 00:36:12;;;;;;;6.38;2.63;;;;;;;20.38;53.67;99757.38;5010505;28;20422;-67
2022/07/31 00:38:40;;;;;;;4.88;2.47;;;;;;;20.43;53.19;99753.44;5010856;28;20140;-67
2022/07/31 00:41:07;;;;;;;6.88;3.10;;;;;;;20.45;52.09;99770.19;5011193;28;20054;-67
2022/07/31 00:43:34;;;;;;;6.68;3.03;;;;;;;20.49;51.44;99764.44;5011081;28;20100;-67
2022/07/31 00:46:01;;;;;;;5.90;3.00;;;;;;;20.53;50.90;99765.03;5009705;28;20050;-67
2022/07/31 00:48:27;;;;;;;4.78;2.45;;;;;;;20.58;50.36;99758.28;5010287;28;20532;-66
2022/07/31 00:50:54;;;;;;;4.90;2.53;;;;;;;20.65;50.74;99763.06;5010181;28;20776;-67
2022/07/31 00:53:21;;;;;;;7.07;2.80;;;;;;;20.70;49.98;99756.31;5009597;28;20405;-67
2022/07/31 00:55:48;;;;;;;18.25;3.97;;;;;;;20.74;50.08;99756.84;5009014;28;20516;-67
2022/07/31 00:58:15;;;;;;;6.15;2.70;;;;;;;20.74;49.64;99752.34;5010158;28;20054;-67
2022/07/31 01:00:42;;;;;;;5.47;2.40;;;;;;;20.79;49.73;99763.47;5022797;28;20045;-67
2022/07/31 01:03:08;;;;;;;7.07;2.70;;;;;;;20.82;49.62;99745.44;5029597;28;20045;-66
2022/07/31 01:05:35;;;;;;;8.68;3.40;;;;;;;20.84;49.72;99754.19;5016987;28;20057;-67
2022/07/31 01:08:01;;;;;;;5.07;3.28;;;;;;;20.85;49.71;99755.88;5022539;28;20056;-67
2022/07/31 01:10:41;;;;;;;6.10;2.80;;;;;;;20.87;49.70;99748.53;5029397;28;20053;-67
2022/07/31 01:13:16;;;;;;;5.35;2.40;;;;;;;20.89;49.75;99752.75;5029452;28;20466;-67
2022/07/31 01:15:44;;;;;;;6.20;2.45;;;;;;;20.91;49.54;99755.31;5028713;28;20056;-67
2022/07/31 01:18:12;;;;;;;4.00;2.58;;;;;;;20.91;49.63;99749.94;5029558;28;20049;-68
2022/07/31 01:20:43;;;;;;;9.55;3.00;;;;;;;20.93;49.71;99753.34;5029398;28;20087;-68
2022/07/31 01:23:54;;;;;;;5.25;2.88;;;;;;;20.92;49.61;99754.31;5026079;28;20060;-67
2022/07/31 01:26:36;;;;;;;4.13;3.13;;;;;;;20.91;49.79;99757.97;4967759;28;20073;-67
2022/07/31 01:29:15;;;;;;;5.93;3.25;;;;;;;20.88;49.89;99760.97;5020837;28;20721;-67
2022/07/31 01:31:45;;;;;;;5.90;3.20;;;;;;;20.87;50.08;99765.47;5029614;28;20045;-67
2022/07/31 01:34:22;;;;;;;4.07;2.75;;;;;;;20.85;50.18;99763.94;5029272;28;20071;-67
2022/07/31 01:36:58;;;;;;;4.47;2.50;;;;;;;20.84;50.33;99763.06;5029269;28;20049;-67
2022/07/31 01:39:26;;;;;;;4.18;3.17;;;;;;;20.80;50.37;99759.84;5029831;28;20042;-67
2022/07/31 01:41:54;;;;;;;6.63;3.42;;;;;;;20.82;50.45;99751.63;5029472;28;20051;-67
2022/07/31 01:44:26;;;;;;;7.18;3.20;;;;;;;20.80;50.77;99754.47;5020477;28;20057;-67
2022/07/31 01:46:54;;;;;;;9.55;3.35;;;;;;;20.80;50.67;99749.13;5009637;28;20046;-67
2022/07/31 01:49:22;;;;;;;4.47;2.83;;;;;;;20.84;50.78;99762.22;5009891;28;20042;-68
2022/07/31 01:51:49;;;;;;;6.90;3.28;;;;;;;20.82;50.76;99759.66;5009426;28;20045;-67
2022/07/31 01:54:19;;;;;;;5.13;2.85;;;;;;;20.80;50.93;99753.63;5008713;28;20057;-66
2022/07/31 01:56:47;;;;;;;7.15;3.10;;;;;;;20.77;51.14;99760.13;5021186;28;20049;-67
2022/07/31 01:59:15;;;;;;;4.55;2.97;;;;;;;20.77;51.15;99759.25;5028747;28;20049;-67
2022/07/31 02:01:45;;;;;;;10.68;3.55;;;;;;;20.73;51.24;99764.06;5017996;28;20050;-66
2022/07/31 02:04:14;;;;;;;6.88;3.58;;;;;;;20.69;51.39;99754.59;5008968;28;20056;-66
2022/07/31 02:06:42;;;;;;;8.02;3.00;;;;;;;20.68;51.47;99763.63;5014025;28;20061;-66
2022/07/31 02:09:09;;;;;;;7.10;2.95;;;;;;;20.65;51.62;99757.69;5032797;28;20486;-66
2022/07/31 02:11:36;;;;;;;4.07;3.05;;;;;;;20.64;51.73;99754.19;5032987;28;20049;-66
2022/07/31 02:14:03;;;;;;;5.63;2.95;;;;;;;20.61;51.88;99753.63;5032251;28;20056;-67
2022/07/31 02:16:32;;;;;;;7.70;3.10;;;;;;;20.62;51.91;99749.94;5032799;28;20050;-66
2022/07/31 02:19:02;;;;;;;5.35;2.58;;;;;;;20.58;52.25;99750.25;5032744;28;20414;-66
2022/07/31 02:21:28;;;;;;;5.80;3.15;;;;;;;20.55;52.30;99745.16;5032752;28;20049;-65
2022/07/31 02:23:55;;;;;;;3.83;2.92;;;;;;;20.53;52.32;99743.59;5032212;28;20056;-66
2022/07/31 02:26:23;;;;;;;10.85;3.22;;;;;;;20.50;52.75;99747.41;5032430;28;20058;-67
2022/07/31 02:28:49;;;;;;;4.30;3.33;;;;;;;20.50;52.83;99744.72;5032698;28;20069;-67
2022/07/31 02:31:17;;;;;;;8.70;3.65;;;;;;;20.49;52.87;99745.69;5032941;28;20053;-67
2022/07/31 02:33:47;;;;;;;4.82;3.50;;;;;;;20.50;52.83;99746.53;5032789;28;20053;-67
2022/07/31 02:36:17;;;;;;;6.43;2.92;;;;;;;20.51;53.14;99746.41;5031894;28;20486;-67
2022/07/31 02:38:45;;;;;;;5.60;2.95;;;;;;;20.50;53.05;99744.72;5032333;28;20071;-66
2022/07/31 02:41:14;;;;;;;5.05;2.78;;;;;;;20.50;53.13;99749.19;5032281;28;20523;-67
2022/07/31 02:43:41;;;;;;;5.53;2.88;;;;;;;20.49;53.26;99745.69;5032883;28;20049;-67
2022/07/31 02:46:09;;;;;;;5.63;3.10;;;;;;;20.49;53.39;99753.72;5032049;28;20045;-67
2022/07/31 02:48:36;;;;;;;5.22;2.88;;;;;;;20.49;53.40;99755.56;5032497;28;20049;-67
2022/07/31 02:51:03;;;;;;;5.43;2.50;;;;;;;20.49;53.66;99748.38;5032155;28;20053;-67
2022/07/31 02:53:32;;;;;;;5.75;2.83;;;;;;;20.50;53.51;99747.41;5031681;28;20053;-67
2022/07/31 02:55:59;;;;;;;4.13;2.42;;;;;;;20.51;53.65;99753.59;5031676;28;20056;-67
2022/07/31 02:58:26;;;;;;;4.75;2.80;;;;;;;20.51;53.60;99746.41;5017202;28;20042;-67
2022/07/31 03:01:00;;;;;;;5.60;2.45;;;;;;;20.48;53.93;99746.69;5012193;28;20046;-66
2022/07/31 03:03:27;;;;;;;4.68;2.75;;;;;;;20.43;53.70;99740.91;5012495;28;20050;-66
2022/07/31 03:05:54;;;;;;;6.07;2.83;;;;;;;20.43;53.94;99737.34;5011446;28;20136;-66
2022/07/31 03:08:20;;;;;;;5.30;2.90;;;;;;;20.43;53.65;99740.03;5027564;28;20057;-67
2022/07/31 03:10:48;;;;;;;5.28;2.90;;;;;;;20.40;53.67;99743.84;5031677;28;20577;-68
2022/07/31 03:13:16;;;;;;;3.88;2.78;;;;;;;20.38;53.81;99732.44;5031738;28;20519;-67
2022/07/31 03:15:43;;;;;;;3.10;2.40;;;;;;;20.37;53.75;99739.59;5031426;28;20051;-67
2022/07/31 03:18:13;;;;;;;4.55;2.70;;;;;;;20.35;53.94;99738.94;5030848;28;20328;-68
2022/07/31 03:20:41;;;;;;;8.25;2.92;;;;;;;20.35;54.33;99744.28;5031294;28;20049;-67
2022/07/31 03:23:10;;;;;;;8.32;3.28;;;;;;;20.35;54.52;99738.06;5031909;28;20051;-67
2022/07/31 03:25:37;;;;;;;5.88;3.20;;;;;;;20.36;54.52;99735.25;5030930;28;20539;-67
2022/07/31 03:28:05;;;;;;;6.18;2.58;;;;;;;20.40;54.54;99741.16;5030739;28;20679;-67
2022/07/31 03:30:31;;;;;;;3.08;2.40;;;;;;;20.40;54.70;99741.16;5011429;28;20564;-68
2022/07/31 03:33:01;;;;;;;6.15;2.78;;;;;;;20.42;55.07;99733.00;5011742;28;20677;-67
2022/07/31 03:35:28;;;;;;;4.60;2.20;;;;;;;20.40;55.28;99730.44;5010870;28;20054;-67
2022/07/31 03:37:54;;;;;;;4.97;3.13;;;;;;;20.35;55.55;99733.56;5011606;28;20050;-67
2022/07/31 03:40:21;;;;;;;3.38;2.47;;;;;;;20.32;55.72;99733.00;5011391;28;20485;-67
2022/07/31 03:42:48;;;;;;;4.63;2.50;;;;;;;20.30;55.85;99741.16;5011102;28;20052;-66
2022/07/31 03:45:17;;;;;;;3.83;2.83;;;;;;;20.28;56.20;99735.13;5010702;28;20046;-66
2022/07/31 03:47:44;;;;;;;5.47;2.63;;;;;;;20.26;56.18;99731.72;5011294;28;20050;-67
2022/07/31 03:50:11;;;;;;;7.15;2.95;;;;;;;20.24;56.42;99735.53;5030517;28;20053;-67
2022/07/31 03:52:38;;;;;;;3.92;2.60;;;;;;;20.23;56.51;99739.16;5031039;28;20049;-68
2022/07/31 03:55:06;;;;;;;6.35;2.90;;;;;;;20.19;56.58;99737.78;5011984;28;20058;-68
2022/07/31 03:57:33;;;;;;;6.95;2.90;;;;;;;20.20;56.58;99726.91;5011130;28;20095;-68
2022/07/31 04:00:01;;;;;;;4.97;2.80;;;;;;;20.16;56.70;99742.41;5009934;28;20053;-68
2022/07/31 04:02:29;;;;;;;5.03;2.30;;;;;;;20.12;57.10;99738.31;5010056;28;20924;-67
2022/07/31 04:04:56;;;;;;;6.88;2.90;;;;;;;20.09;57.10;99743.09;5009737;28;20056;-68
2022/07/31 04:07:22;;;;;;;4.82;2.70;;;;;;;20.04;57.47;99738.16;5017734;28;20132;-67
2022/07/31 04:09:49;;;;;;;4.65;2.60;;;;;;;19.99;57.45;99740.41;5030453;28;20048;-67
2022/07/31 04:12:16;;;;;;;4.47;2.33;;;;;;;19.95;57.51;99739.81;5030499;28;20081;-67
2022/07/31 04:14:42;;;;;;;7.85;2.67;;;;;;;19.93;57.77;99738.25;5030145;28;20049;-67
2022/07/31 04:17:09;;;;;;;3.53;2.80;;;;;;;19.90;57.78;99741.22;5030692;28;20064;-67
2022/07/31 04:19:38;;;;;;;7.40;3.22;;;;;;;19.89;57.85;99737.72;5030375;28;20140;-67
2022/07/31 04:22:04;;;;;;;3.47;2.47;;;;;;;19.86;58.18;99726.41;5030374;28;20053;-67
2022/07/31 04:24:31;;;;;;;3.72;2.67;;;;;;;19.81;58.28;99731.31;5030338;28;20065;-66
2022/07/31 04:26:58;;;;;;;5.35;2.90;;;;;;;19.78;58.50;99739.63;5031045;28;20049;-67
2022/07/31 04:29:27;;;;;;;4.05;2.50;;;;;;;19.73;58.80;99735.53;5030939;28;20051;-66
2022/07/31 04:31:54;;;;;;;4.90;2.85;;;;;;;19.71;58.74;99745.53;5030929;28;20065;-67
2022/07/31 04:34:20;;;;;;;4.88;2.63;;;;;;;19.69;58.81;99736.81;5029885;28;20053;-67
2022/07/31 04:36:48;;;;;;;6.75;2.60;;;;;;;19.68;59.02;99732.41;5030479;28;20049;-67
2022/07/31 04:39:15;;;;;;;7.13;3.55;;;;;;;19.66;59.06;99736.16;5030140;28;20046;-67
2022/07/31 04:41:41;;;;;;;3.97;2.70;;;;;;;19.67;58.86;99737.88;5029865;28;20064;-67
2022/07/31 04:44:09;;;;;;;9.75;3.30;;;;;;;19.65;58.92;99737.16;5029458;28;20144;-67
2022/07/31 04:46:35;;;;;;;4.95;3.30;;;;;;;19.60;58.89;99745.59;5029967;28;20088;-67
2022/07/31 04:49:02;;;;;;;8.63;3.83;;;;;;;19.56;59.11;99749.50;5030113;28;20074;-67
2022/07/31 04:51:28;;;;;;;4.47;3.03;;;;;;;19.57;59.10;99755.72;5010557;28;20050;-67
2022/07/31 04:53:56;;;;;;;4.82;2.97;;;;;;;19.55;59.00;99757.69;5009988;28;20046;-67
2022/07/31 04:56:41;;;;;;;6.78;3.25;;;;;;;19.57;59.03;99758.41;5009994;28;20053;-67
2022/07/31 04:59:09;;;;;;;4.07;2.97;;;;;;;19.57;58.86;99755.72;5010251;28;20049;-67
2022/07/31 05:01:36;;;;;;;6.90;3.38;;;;;;;19.59;58.96;99746.59;5010504;28;20060;-68
2022/07/31 05:04:04;;;;;;;7.88;4.63;;;;;;;19.61;58.98;99749.94;5009676;28;20045;-66
2022/07/31 05:06:35;;;;;;;13.60;3.40;;;;;;;19.63;59.06;99748.00;5015848;28;20059;-66
2022/07/31 05:09:05;;;;;;;6.60;4.55;;;;;;;19.62;59.15;99751.66;5035985;28;20045;-67
2022/07/31 05:11:32;;;;;;;6.13;2.92;;;;;;;19.64;59.42;99748.81;5045760;28;20126;-67
2022/07/31 05:14:00;;;;;;;9.15;4.13;;;;;;;19.67;59.44;99751.25;5029401;28;20042;-66
2022/07/31 05:16:27;;;;;;;7.07;3.83;;;;;;;19.67;59.74;99753.94;5029233;28;20053;-68
2022/07/31 05:18:54;;;;;;;6.03;3.08;;;;;;;19.63;59.93;99750.66;5029519;28;20054;-68
2022/07/31 05:21:22;;;;;;;5.72;3.70;;;;;;;19.64;59.96;99744.34;5027529;28;20049;-67
2022/07/31 05:23:50;;;;;;;3.88;3.35;;;;;;;19.64;60.11;99747.03;5009726;28;20069;-68
2022/07/31 05:26:19;;;;;;;6.95;3.30;;;;;;;19.60;60.41;99747.41;5009421;28;20049;-67
2022/07/31 05:28:48;;;;;;;4.88;3.22;;;;;;;19.56;60.82;99760.19;5009743;28;20497;-68
2022/07/31 05:31:15;;;;;;;4.43;3.25;;;;;;;19.47;61.00;99764.53;5009757;28;20046;-67
2022/07/31 05:33:42;;;;;;;7.10;3.97;;;;;;;19.40;61.40;99751.84;5018039;28;20056;-68
2022/07/31 05:36:09;;;;;;;6.78;2.95;;;;;;;19.40;61.49;99750.00;5014426;28;20061;-66
2022/07/31 05:38:35;;;;;;;9.13;3.13;;;;;;;19.45;61.53;99758.47;5009743;28;20060;-67
2022/07/31 05:41:02;;;;;;;6.35;3.97;;;;;;;19.46;61.60;99752.13;5019586;28;20049;-67
2022/07/31 05:43:30;;;;;;;5.80;3.10;;;;;;;19.47;61.53;99758.34;5035824;28;20052;-67
2022/07/31 05:45:56;;;;;;;6.95;3.30;;;;;;;19.44;61.84;99748.78;5030212;28;20394;-66
2022/07/31 05:48:23;;;;;;;6.38;3.20;;;;;;;19.44;62.04;99748.78;5016194;28;20514;-66
2022/07/31 05:50:51;;;;;;;5.32;3.65;;;;;;;19.45;61.72;99745.09;5015913;28;20490;-66
2022/07/31 05:53:19;;;;;;;4.13;3.20;;;;;;;19.44;61.75;99754.13;5016294;28;20605;-67
2022/07/31 05:55:47;;;;;;;6.07;2.85;;;;;;;19.43;61.80;99752.41;5015527;28;20046;-66
2022/07/31 05:58:15;;;;;;;6.93;3.08;;;;;;;19.38;62.54;99751.97;5016216;28;20180;-68
2022/07/31 06:00:43;;;;;;;4.15;3.33;;;;;;;19.40;62.56;99750.00;5015479;28;20726;-67
2022/07/31 06:03:11;;;;;;;5.60;2.85;;;;;;;19.43;62.56;99754.22;5015673;28;20054;-67
2022/07/31 06:05:38;;;;;;;10.25;3.38;;;;;;;19.40;63.04;99754.50;5015607;28;20140;-67
2022/07/31 06:08:05;;;;;;;7.20;3.67;;;;;;;19.40;63.61;99746.50;5029051;28;20412;-67
2022/07/31 06:10:32;;;;;;;7.03;3.60;;;;;;;19.34;64.40;99745.16;5035549;28;20049;-66
2022/07/31 06:12:59;;;;;;;5.63;3.53;;;;;;;19.29;64.98;99745.56;5035727;28;20050;-67
2022/07/31 06:15:26;;;;;;;6.20;3.00;;;;;;;19.22;65.24;99736.41;5035186;28;20055;-67
2022/07/31 06:17:54;;;;;;;6.30;3.55;;;;;;;19.19;65.79;99742.00;5035260;28;20057;-66
2022/07/31 06:20:20;;;;;;;5.43;3.13;;;;;;;19.20;65.80;99738.38;5035263;28;20536;-66
2022/07/31 06:22:47;;;;;;;4.38;3.30;;;;;;;19.20;65.74;99726.84;5035657;28;20056;-68
2022/07/31 06:25:13;;;;;;;3.85;3.33;;;;;;;19.23;66.07;99731.91;5034891;28;20416;-67
2022/07/31 06:27:40;;;;;;;5.85;3.58;;;;;;;19.23;66.20;99743.44;5035332;28;20056;-67
2022/07/31 06:30:10;;;;;;;4.00;2.75;;;;;;;19.22;66.41;99741.75;5035348;28;20084;-67
2022/07/31 06:32:36;;;;;;;5.10;2.92;;;;;;;19.18;66.82;99736.81;5035360;28;20050;-67
2022/07/31 06:35:06;;;;;;;5.93;3.22;;;;;;;19.18;66.82;99740.31;5035205;28;20049;-67
2022/07/31 06:37:33;;;;;;;5.15;3.30;;;;;;;19.23;66.68;99734.56;5035558;28;20569;-66
2022/07/31 06:40:00;;;;;;;5.88;3.28;;;;;;;19.26;66.72;99745.84;5035207;28;20041;-67
2022/07/31 06:42:26;;;;;;;3.47;2.70;;;;;;;19.25;66.71;99749.50;5028382;28;20060;-67
2022/07/31 06:44:54;;;;;;;4.60;2.90;;;;;;;19.27;66.68;99747.56;5014859;28;20112;-66
2022/07/31 06:47:23;;;;;;;3.90;2.45;;;;;;;19.35;66.86;99738.03;5015504;28;20049;-66
2022/07/31 06:49:50;;;;;;;7.30;2.92;;;;;;;19.36;66.69;99748.56;5015509;28;20050;-66
2022/07/31 06:52:18;;;;;;;7.65;3.50;;;;;;;19.37;66.90;99749.41;5012700;28;20046;-68
2022/07/31 06:54:44;;;;;;;3.45;2.58;;;;;;;19.40;66.90;99746.50;5012011;28;20149;-66
2022/07/31 06:57:12;;;;;;;8.82;2.75;;;;;;;19.46;66.88;99751.28;5012029;28;20062;-67
2022/07/31 06:59:38;;;;;;;4.18;2.88;;;;;;;19.52;66.46;99750.78;5012248;28;20049;-67
2022/07/31 07:02:05;;;;;;;4.28;2.88;;;;;;;19.62;66.37;99740.97;5012475;28;20249;-68
2022/07/31 07:04:32;;;;;;;5.35;3.10;;;;;;;19.66;66.46;99744.19;5011790;28;20046;-67
2022/07/31 07:06:58;;;;;;;4.97;2.95;;;;;;;19.64;66.63;99743.47;5016282;28;20050;-67
2022/07/31 07:09:26;;;;;;;5.03;2.90;;;;;;;19.69;66.50;99747.50;5032037;28;20124;-66
2022/07/31 07:11:53;;;;;;;3.00;2.40;;;;;;;19.73;66.47;99735.53;5031633;28;20413;-66
2022/07/31 07:14:19;;;;;;;4.82;2.60;;;;;;;19.79;66.37;99735.97;5031387;28;20054;-66
2022/07/31 07:16:46;;;;;;;4.63;3.15;;;;;;;19.88;66.43;99735.16;5031756;28;20470;-67
2022/07/31 07:19:12;;;;;;;4.82;2.83;;;;;;;19.93;65.97;99741.78;5031610;28;20461;-67
2022/07/31 07:21:39;;;;;;;6.25;2.75;;;;;;;19.94;65.92;99738.13;5031976;28;20049;-67
2022/07/31 07:24:07;;;;;;;4.65;2.67;;;;;;;20.02;65.59;99733.94;5030323;28;20107;-67
2022/07/31 07:26:34;;;;;;;4.75;3.00;;;;;;;20.16;65.34;99733.53;5029587;28;20096;-67
2022/07/31 07:29:01;;;;;;;4.45;2.60;;;;;;;20.34;65.05;99726.50;5032559;28;20069;-66
2022/07/31 07:31:28;;;;;;;4.10;2.53;;;;;;;20.55;64.61;99728.22;5035534;28;20041;-67
2022/07/31 07:33:55;;;;;;;5.40;2.85;;;;;;;20.61;64.03;99721.50;5034488;28;20115;-65
2022/07/31 07:36:22;;;;;;;5.07;2.58;;;;;;;20.62;63.98;99724.00;5032369;28;20053;-66
2022/07/31 07:38:48;;;;;;;4.32;2.67;;;;;;;20.64;64.01;99719.34;5036632;28;20045;-66
2022/07/31 07:41:15;;;;;;;4.88;2.55;;;;;;;20.58;64.20;99717.25;5035901;28;20045;-67
2022/07/31 07:43:43;;;;;;;3.50;2.60;;;;;;;20.54;64.33;99721.16;5035075;28;20055;-66
2022/07/31 07:46:09;;;;;;;4.60;2.85;;;;;;;20.45;64.62;99725.53;5036897;28;20056;-66
2022/07/31 07:48:36;;;;;;;3.65;2.92;;;;;;;20.37;64.94;99728.91;5036120;28;20053;-65
2022/07/31 07:51:02;;;;;;;5.35;2.70;;;;;;;20.42;64.96;99722.28;5031612;28;20054;-65
2022/07/31 07:53:29;;;;;;;4.15;2.88;;;;;;;20.47;64.67;99715.50;5031362;28;20063;-66
2022/07/31 07:55:56;;;;;;;5.15;2.88;;;;;;;20.54;64.55;99721.16;5030457;28;20064;-65
2022/07/31 07:58:22;;;;;;;7.05;4.13;;;;;;;20.58;64.62;99715.41;5031222;28;20049;-67
2022/07/31 08:00:50;;;;;;;4.85;2.70;;;;;;;20.68;64.29;99710.06;5030729;28;20075;-67
2022/07/31 08:03:17;;;;;;;3.47;2.17;;;;;;;20.79;63.77;99711.72;5030594;28;20429;-67
2022/07/31 08:05:44;;;;;;;3.65;2.95;;;;;;;20.88;63.43;99710.88;5030266;28;20057;-66
2022/07/31 08:08:10;;;;;;;6.88;4.15;;;;;;;20.99;62.75;99715.22;5016637;28;20647;-66
2022/07/31 08:10:38;;;;;;;4.90;3.20;;;;;;;21.08;62.74;99714.38;5010971;28;20046;-67
2022/07/31 08:13:04;;;;;;;4.93;2.72;;;;;;;21.12;62.18;99714.94;5010986;28;20088;-66
2022/07/31 08:15:31;;;;;;;3.30;2.00;;;;;;;21.25;62.02;99714.63;5010872;28;20057;-68
2022/07/31 08:17:59;;;;;;;3.22;2.40;;;;;;;21.32;61.59;99716.56;5011220;28;20056;-68
2022/07/31 08:20:25;;;;;;;4.68;2.28;;;;;;;21.34;61.21;99721.75;5011109;28;20056;-66
2022/07/31 08:22:52;;;;;;;3.20;2.03;;;;;;;21.33;60.70;99723.59;5010957;28;20042;-67
2022/07/31 08:25:19;;;;;;;5.22;2.33;;;;;;;21.35;60.86;99715.41;5010425;28;20046;-67
2022/07/31 08:27:45;;;;;;;3.47;2.40;;;;;;;21.58;60.30;99715.91;5010684;28;20046;-67
2022/07/31 08:30:12;;;;;;;2.60;1.73;;;;;;;21.73;59.61;99708.22;5019968;28;20041;-68
2022/07/31 08:32:39;;;;;;;3.80;2.63;;;;;;;21.82;59.24;99708.16;5029984;28;20515;-66
2022/07/31 08:35:08;;;;;;;2.97;2.28;;;;;;;21.80;59.10;99706.63;5021461;28;20049;-66
2022/07/31 08:37:34;;;;;;;8.93;2.45;;;;;;;21.78;59.18;99709.47;5010296;28;20058;-66
2022/07/31 08:40:01;;;;;;;6.30;2.55;;;;;;;21.80;59.19;99707.47;5010189;28;20045;-68
2022/07/31 08:42:27;;;;;;;3.75;2.30;;;;;;;21.81;59.17;99708.34;5010305;28;20046;-67
2022/07/31 08:44:54;;;;;;;2.88;1.88;;;;;;;21.82;59.42;99707.34;5012333;28;20046;-66
2022/07/31 08:47:22;;;;;;;4.00;2.30;;;;;;;21.84;59.40;99711.56;5039171;28;20057;-66
2022/07/31 08:49:49;;;;;;;2.90;1.90;;;;;;;21.91;59.22;99719.84;5040265;28;20067;-67
2022/07/31 08:52:19;;;;;;;2.13;1.80;;;;;;;22.00;58.79;99716.28;5039075;28;20390;-67
2022/07/31 08:54:47;;;;;;;3.78;2.00;;;;;;;22.19;58.41;99709.91;5038323;28;21346;-67
2022/07/31 08:57:13;;;;;;;2.00;1.60;;;;;;;22.39;57.94;99710.66;5035648;28;20049;-66
2022/07/31 08:59:40;;;;;;;3.17;2.20;;;;;;;22.54;57.63;99712.81;5037360;28;20512;-56
2022/07/31 09:02:08;;;;;;;2.50;1.90;;;;;;;23.02;56.53;99706.16;5042324;28;20054;-54
2022/07/31 09:04:35;;;;;;;2.58;1.80;;;;;;;23.67;54.40;99700.28;5037412;28;20045;-54
2022/07/31 09:07:02;;;;;;;4.88;2.15;;;;;;;23.96;53.58;99713.38;5039359;28;20055;-50
2022/07/31 09:09:31;;;;;;;4.35;2.03;;;;;;;24.37;52.50;99700.00;5032508;28;20497;-50
2022/07/31 09:11:57;;;;;;;4.07;1.63;;;;;;;24.92;51.35;99693.13;5029637;28;20041;-54
2022/07/31 09:14:26;;;;;;;3.45;2.10;;;;;;;25.57;49.01;99692.13;5028467;28;20045;-53
2022/07/31 09:16:53;;;;;;;3.83;1.77;;;;;;;25.90;48.37;99691.00;5015738;28;20160;-55
2022/07/31 09:19:20;;;;;;;2.80;1.83;;;;;;;26.13;47.27;99684.78;5009923;28;20076;-52
2022/07/31 09:21:47;;;;;;;4.85;2.55;;;;;;;25.87;47.55;99690.53;5009878;28;20413;-56
2022/07/31 09:24:25;;;;;;;7.60;3.05;;;;;;;25.85;48.54;99681.72;5009053;28;20060;-57
2022/07/31 09:27:02;;;;;;;4.78;2.35;;;;;;;25.61;49.03;99690.78;5022278;28;20129;-50
2022/07/31 09:29:36;;;;;;;4.45;2.38;;;;;;;25.29;49.98;99689.88;5029111;28;20144;-52
2022/07/31 09:32:14;;;;;;;3.67;1.88;;;;;;;25.07;49.98;99691.41;5015273;28;20049;-52
2022/07/31 09:34:41;;;;;;;5.97;2.33;;;;;;;24.95;50.44;99688.22;5008842;28;20054;-50
2022/07/31 09:37:12;;;;;;;6.45;2.03;;;;;;;24.85;50.49;99701.03;5009906;28;20597;-58
2022/07/31 09:39:39;;;;;;;3.28;1.73;;;;;;;24.78;50.29;99700.03;5010367;28;20046;-58
2022/07/31 09:42:08;;;;;;;4.47;1.90;;;;;;;25.06;49.43;99698.66;5012305;28;20054;-51
2022/07/31 09:44:39;;;;;;;5.90;2.75;;;;;;;25.53;48.89;99690.81;5009386;28;20046;-55
2022/07/31 09:47:06;;;;;;;4.78;2.65;;;;;;;25.64;48.42;99693.13;5010491;28;20486;-55
2022/07/31 09:49:34;;;;;;;3.47;2.55;;;;;;;26.62;46.02;99691.75;5029092;28;20516;-57
2022/07/31 09:52:00;;;;;;;3.45;2.08;;;;;;;27.82;43.41;99680.88;5029028;28;20049;-53
2022/07/31 09:54:29;;;;;;;4.18;2.08;;;;;;;28.05;42.42;99676.13;5028471;28;20049;-56
2022/07/31 09:56:56;;;;;;;3.60;1.60;;;;;;;27.91;43.17;99677.03;5029229;28;20059;-50
2022/07/31 09:59:25;;;;;;;3.50;1.88;;;;;;;28.22;41.58;99676.72;5024542;28;20055;-54
2022/07/31 10:01:53;;;;;;;2.35;1.70;;;;;;;28.34;42.00;99674.34;5022161;28;20132;-55
2022/07/31 10:04:24;;;;;;;3.35;1.90;;;;;;;28.01;42.58;99687.56;5028262;28;20509;-56
2022/07/31 10:06:52;;;;;;;7.53;1.75;;;;;;;27.74;43.10;99678.22;5027503;28;20130;-56
2022/07/31 10:09:20;;;;;;;4.45;2.15;;;;;;;28.06;42.32;99682.41;5029001;28;20049;-51
2022/07/31 10:11:49;;;;;;;15.52;9.43;;;;;;;28.25;42.34;99670.06;5028632;28;20080;-54
2022/07/31 10:14:21;;;;;;;29.95;11.40;;;;;;;28.20;42.70;99673.34;5028029;28;20057;-53
2022/07/31 10:16:54;;;;;;;69.78;24.50;;;;;;;29.03;40.96;99675.56;5028192;28;20496;-56
2022/07/31 10:19:22;;;;;;;25.00;10.38;;;;;;;30.00;39.07;99669.19;5028229;28;20515;-53
2022/07/31 10:21:55;;;;;;;20.02;6.93;;;;;;;29.85;38.55;99671.25;5028944;28;20055;-53
2022/07/31 10:24:23;;;;;;;8.18;4.38;;;;;;;29.66;38.14;99681.84;5028831;28;20497;-57
2022/07/31 10:26:51;;;;;;;6.30;3.28;;;;;;;29.60;38.07;99673.63;5028692;28;20103;-50
2022/07/31 10:29:19;;;;;;;4.57;2.95;;;;;;;29.92;37.90;99669.41;5012764;28;20085;-53
2022/07/31 10:31:45;;;;;;;2.92;2.00;;;;;;;29.48;38.65;99662.50;5012762;28;20413;-48
2022/07/31 10:34:14;;;;;;;3.40;2.05;;;;;;;29.27;39.74;99664.28;5012130;28;20084;-56
2022/07/31 10:36:43;;;;;;;3.58;1.98;;;;;;;28.88;40.49;99667.53;5012732;28;20414;-55
2022/07/31 10:39:17;;;;;;;3.33;2.00;;;;;;;29.04;39.39;99669.97;5012624;28;20425;-54
2022/07/31 10:41:49;;;;;;;3.50;2.47;;;;;;;29.16;39.40;99664.81;5012652;28;20050;-57
2022/07/31 10:44:22;;;;;;;5.65;1.90;;;;;;;29.70;38.30;99664.09;5011873;28;20510;-53
2022/07/31 10:46:49;;;;;;;4.22;1.65;;;;;;;30.35;36.85;99667.22;5012984;28;20066;-52
2022/07/31 10:49:17;;;;;;;2.75;1.98;;;;;;;30.78;36.52;99666.00;5012566;28;20045;-53
2022/07/31 10:51:48;;;;;;;9.68;2.85;;;;;;;29.58;38.72;99667.56;5012445;28;20046;-50
2022/07/31 10:54:15;;;;;;;4.70;3.00;;;;;;;29.98;37.68;99663.16;5011825;28;20132;-55
2022/07/31 10:56:42;;;;;;;3.42;2.25;;;;;;;30.24;37.31;99665.09;5012488;28;20050;-53
2022/07/31 10:59:09;;;;;;;3.13;1.80;;;;;;;29.19;38.83;99655.44;5011972;28;20058;-51
2022/07/31 11:01:45;;;;;;;13.57;2.45;;;;;;;28.51;40.29;99655.97;5012285;28;20342;-50
2022/07/31 11:04:12;;;;;;;4.13;2.20;;;;;;;28.75;40.45;99648.41;5011739;28;20058;-50
2022/07/31 11:06:42;;;;;;;3.97;2.45;;;;;;;28.63;40.55;99651.69;5013477;28;20627;-56
2022/07/31 11:09:08;;;;;;;3.72;2.40;;;;;;;28.16;41.47;99641.44;5031668;28;20520;-54
2022/07/31 11:11:36;;;;;;;3.55;1.92;;;;;;;28.16;41.60;99634.13;5031761;28;20049;-53
2022/07/31 11:14:04;;;;;;;4.20;2.47;;;;;;;28.25;41.75;99643.78;5031467;28;20141;-52
2022/07/31 11:16:30;;;;;;;8.50;2.53;;;;;;;28.14;41.99;99635.34;5031773;28;20088;-51
2022/07/31 11:18:58;;;;;;;4.00;2.58;;;;;;;28.12;41.80;99640.13;5031170;28;20128;-54
2022/07/31 11:21:33;;;;;;;30.55;3.55;;;;;;;28.25;41.58;99634.81;5031455;28;20115;-50
2022/07/31 11:24:01;;;;;;;3.72;2.60;;;;;;;28.46;41.97;99634.03;5021354;28;20049;-48
2022/07/31 11:26:28;;;;;;;3.97;2.47;;;;;;;28.38;41.70;99632.25;5013965;28;20053;-48
2022/07/31 11:28:55;;;;;;;5.05;2.60;;;;;;;28.15;42.24;99632.44;5011771;28;20418;-53
2022/07/31 11:31:28;;;;;;;6.07;2.90;;;;;;;27.98;42.69;99637.25;5011950;28;20108;-53
2022/07/31 11:33:55;;;;;;;4.20;2.42;;;;;;;27.93;42.24;99637.00;5011439;28;20054;-53
2022/07/31 11:36:24;;;;;;;3.95;2.70;;;;;;;27.82;43.05;99627.50;5017347;28;20045;-51
2022/07/31 11:38:52;;;;;;;4.10;2.25;;;;;;;27.61;42.87;99639.09;5030016;28;20071;-49